sensor_id;sensor_type;location;lat;lon;timestamp;temperature;humidity
5055;DHT22;13829;48.990;8.346;2022-12-07T00:01:30;5.90;99.90
5055;DHT22;13829;48.990;8.346;2022-12-07T00:04:02;5.90;99.90
5055;DHT22;13829;48.990;8.346;2022-12-07T00:06:30;5.90;99.90
5055;DHT22;13829;48.990;8.346;2022-12-07T00:08:58;6.00;99.90
5055;DHT22;13829;48.990;8.346;2022-12-07T00:11:25;6.00;99.90
5055;DHT22;13829;48.990;8.346;2022-12-07T00:13:54;6.00;99.90
5055;DHT22;13829;48.990;8.346;2022-12-07T00:16:26;5.90;99.90
5055;DHT22;13829;48.990;8.346;2022-12-07T00:18:56;6.00;99.90
5055;DHT22;13829;48.990;8.346;2022-12-07T00:21:25;5.90;99.90
5055;DHT22;13829;48.990;8.346;2022-12-07T00:23:54;5.90;99.90
5055;DHT22;13829;48.990;8.346;2022-12-07T00:26:24;5.90;99.90
5055;DHT22;13829;48.990;8.346;2022-12-07T00:28:54;5.90;99.90
5055;DHT22;13829;48.990;8.346;2022-12-07T00:31:24;5.90;99.90
5055;DHT22;13829;48.990;8.346;2022-12-07T00:33:52;5.90;99.90
5055;DHT22;13829;48.990;8.346;2022-12-07T00:36:22;5.80;99.90
5055;DHT22;13829;48.990;8.346;2022-12-07T00:38:50;5.80;99.90
5055;DHT22;13829;48.990;8.346;2022-12-07T00:41:19;5.80;99.90
5055;DHT22;13829;48.990;8.346;2022-12-07T00:43:49;5.80;99.90
5055;DHT22;13829;48.990;8.346;2022-12-07T00:46:17;5.80;99.90
5055;DHT22;13829;48.990;8.346;2022-12-07T00:48:45;5.80;99.90
5055;DHT22;13829;48.990;8.346;2022-12-07T00:51:14;5.80;99.90
5055;DHT22;13829;48.990;8.346;2022-12-07T00:53:44;5.80;99.90
5055;DHT22;13829;48.990;8.346;2022-12-07T00:56:14;5.80;99.90
5055;DHT22;13829;48.990;8.346;2022-12-07T00:58:42;5.80;99.90
5055;DHT22;13829;48.990;8.346;2022-12-07T01:01:10;5.80;99.90
5055;DHT22;13829;48.990;8.346;2022-12-07T01:03:38;5.80;99.90
5055;DHT22;13829;48.990;8.346;2022-12-07T01:06:05;5.80;99.90
5055;DHT22;13829;48.990;8.346;2022-12-07T01:08:32;5.80;99.90
5055;DHT22;13829;48.990;8.346;2022-12-07T01:11:03;5.70;99.90
5055;DHT22;13829;48.990;8.346;2022-12-07T01:13:33;5.80;99.90
5055;DHT22;13829;48.990;8.346;2022-12-07T01:16:03;5.80;99.90
5055;DHT22;13829;48.990;8.346;2022-12-07T01:18:34;5.90;99.90
5055;DHT22;13829;48.990;8.346;2022-12-07T01:21:03;5.90;99.90
5055;DHT22;13829;48.990;8.346;2022-12-07T01:23:32;5.90;99.90
5055;DHT22;13829;48.990;8.346;2022-12-07T01:26:03;5.90;99.90
5055;DHT22;13829;48.990;8.346;2022-12-07T01:28:32;5.90;99.90
5055;DHT22;13829;48.990;8.346;2022-12-07T01:31:01;5.90;99.90
5055;DHT22;13829;48.990;8.346;2022-12-07T01:33:31;6.10;99.90
5055;DHT22;13829;48.990;8.346;2022-12-07T01:36:04;6.00;99.90
5055;DHT22;13829;48.990;8.346;2022-12-07T01:38:33;6.10;99.90
5055;DHT22;13829;48.990;8.346;2022-12-07T01:41:02;6.20;99.90
5055;DHT22;13829;48.990;8.346;2022-12-07T01:43:30;6.10;99.90
5055;DHT22;13829;48.990;8.346;2022-12-07T01:45:59;5.90;99.90
5055;DHT22;13829;48.990;8.346;2022-12-07T01:48:30;5.80;99.90
5055;DHT22;13829;48.990;8.346;2022-12-07T01:51:02;5.90;99.90
5055;DHT22;13829;48.990;8.346;2022-12-07T01:53:34;5.80;99.90
5055;DHT22;13829;48.990;8.346;2022-12-07T01:56:06;5.80;99.90
5055;DHT22;13829;48.990;8.346;2022-12-07T01:58:37;5.70;99.90
5055;DHT22;13829;48.990;8.346;2022-12-07T02:01:04;5.70;99.90
5055;DHT22;13829;48.990;8.346;2022-12-07T02:03:34;5.60;99.90
5055;DHT22;13829;48.990;8.346;2022-12-07T02:06:05;5.70;99.90
5055;DHT22;13829;48.990;8.346;2022-12-07T02:08:33;5.70;99.90
5055;DHT22;13829;48.990;8.346;2022-12-07T02:11:01;5.60;99.90
5055;DHT22;13829;48.990;8.346;2022-12-07T02:13:33;5.60;99.90
5055;DHT22;13829;48.990;8.346;2022-12-07T02:16:15;5.70;99.90
5055;DHT22;13829;48.990;8.346;2022-12-07T02:19:03;5.70;99.90
5055;DHT22;13829;48.990;8.346;2022-12-07T02:21:54;5.70;99.90
5055;DHT22;13829;48.990;8.346;2022-12-07T02:24:37;5.70;99.90
5055;DHT22;13829;48.990;8.346;2022-12-07T02:27:38;5.70;99.90
5055;DHT22;13829;48.990;8.346;2022-12-07T02:30:14;5.70;99.90
5055;DHT22;13829;48.990;8.346;2022-12-07T02:32:53;5.70;99.90
5055;DHT22;13829;48.990;8.346;2022-12-07T02:35:28;5.70;99.90
5055;DHT22;13829;48.990;8.346;2022-12-07T02:38:03;5.60;99.90
5055;DHT22;13829;48.990;8.346;2022-12-07T02:40:40;5.60;99.90
5055;DHT22;13829;48.990;8.346;2022-12-07T02:43:13;5.60;99.90
5055;DHT22;13829;48.990;8.346;2022-12-07T02:45:45;5.60;99.90
5055;DHT22;13829;48.990;8.346;2022-12-07T02:48:15;5.50;99.90
5055;DHT22;13829;48.990;8.346;2022-12-07T02:50:48;5.50;99.90
5055;DHT22;13829;48.990;8.346;2022-12-07T02:53:29;5.60;99.90
5055;DHT22;13829;48.990;8.346;2022-12-07T02:55:58;5.60;99.90
5055;DHT22;13829;48.990;8.346;2022-12-07T02:58:37;5.70;99.90
5055;DHT22;13829;48.990;8.346;2022-12-07T03:01:26;5.70;99.90
5055;DHT22;13829;48.990;8.346;2022-12-07T03:04:04;5.70;99.90
5055;DHT22;13829;48.990;8.346;2022-12-07T03:06:43;5.80;99.90
5055;DHT22;13829;48.990;8.346;2022-12-07T03:09:21;5.80;99.90
5055;DHT22;13829;48.990;8.346;2022-12-07T03:12:03;5.80;99.90
5055;DHT22;13829;48.990;8.346;2022-12-07T03:14:40;5.90;99.90
5055;DHT22;13829;48.990;8.346;2022-12-07T03:17:16;6.00;99.90
5055;DHT22;13829;48.990;8.346;2022-12-07T03:19:49;6.00;99.90
5055;DHT22;13829;48.990;8.346;2022-12-07T03:22:21;6.10;99.90
5055;DHT22;13829;48.990;8.346;2022-12-07T03:24:53;6.20;99.90
5055;DHT22;13829;48.990;8.346;2022-12-07T03:27:26;6.10;99.90
5055;DHT22;13829;48.990;8.346;2022-12-07T03:30:00;6.20;99.90
5055;DHT22;13829;48.990;8.346;2022-12-07T03:32:35;6.00;99.90
5055;DHT22;13829;48.990;8.346;2022-12-07T03:35:10;5.90;99.90
5055;DHT22;13829;48.990;8.346;2022-12-07T03:37:45;5.90;99.90
5055;DHT22;13829;48.990;8.346;2022-12-07T03:40:21;5.70;99.90
5055;DHT22;13829;48.990;8.346;2022-12-07T03:42:53;5.60;99.90
5055;DHT22;13829;48.990;8.346;2022-12-07T03:45:26;5.50;99.90
5055;DHT22;13829;48.990;8.346;2022-12-07T03:48:05;5.20;99.90
5055;DHT22;13829;48.990;8.346;2022-12-07T03:50:42;5.10;99.90
5055;DHT22;13829;48.990;8.346;2022-12-07T03:53:18;5.00;99.90
5055;DHT22;13829;48.990;8.346;2022-12-07T03:55:48;5.00;99.90
5055;DHT22;13829;48.990;8.346;2022-12-07T03:58:19;4.90;99.90
5055;DHT22;13829;48.990;8.346;2022-12-07T04:00:49;5.00;99.90
5055;DHT22;13829;48.990;8.346;2022-12-07T04:03:18;5.00;99.90
5055;DHT22;13829;48.990;8.346;2022-12-07T04:05:45;5.10;99.90
5055;DHT22;13829;48.990;8.346;2022-12-07T04:08:12;5.10;99.90
5055;DHT22;13829;48.990;8.346;2022-12-07T04:10:39;5.10;99.90
5055;DHT22;13829;48.990;8.346;2022-12-07T04:13:06;5.20;99.90
5055;DHT22;13829;48.990;8.346;2022-12-07T04:15:33;5.20;99.90
5055;DHT22;13829;48.990;8.346;2022-12-07T04:18:00;5.10;99.90
5055;DHT22;13829;48.990;8.346;2022-12-07T04:20:28;5.10;99.90
5055;DHT22;13829;48.990;8.346;2022-12-07T04:22:55;5.10;99.90
5055;DHT22;13829;48.990;8.346;2022-12-07T04:25:22;5.10;99.90
5055;DHT22;13829;48.990;8.346;2022-12-07T04:27:49;5.10;99.90
5055;DHT22;13829;48.990;8.346;2022-12-07T04:30:16;5.10;99.90
5055;DHT22;13829;48.990;8.346;2022-12-07T04:32:43;5.20;99.90
5055;DHT22;13829;48.990;8.346;2022-12-07T04:35:10;5.20;99.90
5055;DHT22;13829;48.990;8.346;2022-12-07T04:37:38;5.20;99.90
5055;DHT22;13829;48.990;8.346;2022-12-07T04:40:07;5.20;99.90
5055;DHT22;13829;48.990;8.346;2022-12-07T04:42:36;5.30;99.90
5055;DHT22;13829;48.990;8.346;2022-12-07T04:45:04;5.30;99.90
5055;DHT22;13829;48.990;8.346;2022-12-07T04:47:32;5.60;99.90
5055;DHT22;13829;48.990;8.346;2022-12-07T04:49:59;5.40;99.90
5055;DHT22;13829;48.990;8.346;2022-12-07T04:52:26;5.40;99.90
5055;DHT22;13829;48.990;8.346;2022-12-07T04:54:54;5.30;99.90
5055;DHT22;13829;48.990;8.346;2022-12-07T04:57:21;5.30;99.90
5055;DHT22;13829;48.990;8.346;2022-12-07T04:59:48;5.30;99.90
5055;DHT22;13829;48.990;8.346;2022-12-07T05:02:15;5.30;99.90
5055;DHT22;13829;48.990;8.346;2022-12-07T05:04:41;5.30;99.90
5055;DHT22;13829;48.990;8.346;2022-12-07T05:07:08;5.30;99.90
5055;DHT22;13829;48.990;8.346;2022-12-07T05:09:35;5.40;99.90
5055;DHT22;13829;48.990;8.346;2022-12-07T05:12:04;5.50;99.90
5055;DHT22;13829;48.990;8.346;2022-12-07T05:14:30;5.40;99.90
5055;DHT22;13829;48.990;8.346;2022-12-07T05:16:57;5.50;99.90
5055;DHT22;13829;48.990;8.346;2022-12-07T05:19:24;5.50;99.90
5055;DHT22;13829;48.990;8.346;2022-12-07T05:21:51;5.40;99.90
5055;DHT22;13829;48.990;8.346;2022-12-07T05:24:18;5.50;99.90
5055;DHT22;13829;48.990;8.346;2022-12-07T05:26:45;5.50;99.90
5055;DHT22;13829;48.990;8.346;2022-12-07T05:29:16;5.50;99.90
5055;DHT22;13829;48.990;8.346;2022-12-07T05:31:43;5.50;99.90
5055;DHT22;13829;48.990;8.346;2022-12-07T05:34:10;5.40;99.90
5055;DHT22;13829;48.990;8.346;2022-12-07T05:36:37;5.30;99.90
5055;DHT22;13829;48.990;8.346;2022-12-07T05:39:04;5.30;99.90
5055;DHT22;13829;48.990;8.346;2022-12-07T05:41:32;5.30;99.90
5055;DHT22;13829;48.990;8.346;2022-12-07T05:44:18;5.40;99.90
5055;DHT22;13829;48.990;8.346;2022-12-07T05:46:45;5.30;99.90
5055;DHT22;13829;48.990;8.346;2022-12-07T05:49:12;5.30;99.90
5055;DHT22;13829;48.990;8.346;2022-12-07T05:51:39;5.30;99.90
5055;DHT22;13829;48.990;8.346;2022-12-07T05:54:05;5.30;99.90
5055;DHT22;13829;48.990;8.346;2022-12-07T05:56:32;5.40;99.90
5055;DHT22;13829;48.990;8.346;2022-12-07T05:58:59;5.40;99.90
5055;DHT22;13829;48.990;8.346;2022-12-07T06:01:45;5.30;99.90
5055;DHT22;13829;48.990;8.346;2022-12-07T06:04:12;5.30;99.90
5055;DHT22;13829;48.990;8.346;2022-12-07T06:06:39;5.40;99.90
5055;DHT22;13829;48.990;8.346;2022-12-07T06:09:06;5.40;99.90
5055;DHT22;13829;48.990;8.346;2022-12-07T06:11:34;5.40;99.90
5055;DHT22;13829;48.990;8.346;2022-12-07T06:14:18;5.50;99.90
5055;DHT22;13829;48.990;8.346;2022-12-07T06:16:47;5.50;99.90
5055;DHT22;13829;48.990;8.346;2022-12-07T06:19:14;5.40;99.90
5055;DHT22;13829;48.990;8.346;2022-12-07T06:21:41;5.50;99.90
5055;DHT22;13829;48.990;8.346;2022-12-07T06:24:10;5.50;99.90
5055;DHT22;13829;48.990;8.346;2022-12-07T06:26:38;5.50;99.90
5055;DHT22;13829;48.990;8.346;2022-12-07T06:29:05;5.50;99.90
5055;DHT22;13829;48.990;8.346;2022-12-07T06:31:32;5.50;99.90
5055;DHT22;13829;48.990;8.346;2022-12-07T06:34:02;5.50;99.90
5055;DHT22;13829;48.990;8.346;2022-12-07T06:36:30;5.50;99.90
5055;DHT22;13829;48.990;8.346;2022-12-07T06:38:57;5.50;99.90
5055;DHT22;13829;48.990;8.346;2022-12-07T06:41:24;5.50;99.90
5055;DHT22;13829;48.990;8.346;2022-12-07T06:43:51;5.50;99.90
5055;DHT22;13829;48.990;8.346;2022-12-07T06:46:19;5.40;99.90
5055;DHT22;13829;48.990;8.346;2022-12-07T06:48:46;5.50;99.90
5055;DHT22;13829;48.990;8.346;2022-12-07T06:51:14;5.50;99.90
5055;DHT22;13829;48.990;8.346;2022-12-07T06:53:41;5.50;99.90
5055;DHT22;13829;48.990;8.346;2022-12-07T06:56:08;5.50;99.90
5055;DHT22;13829;48.990;8.346;2022-12-07T06:58:35;5.50;99.90
5055;DHT22;13829;48.990;8.346;2022-12-07T07:01:02;5.40;99.90
5055;DHT22;13829;48.990;8.346;2022-12-07T07:03:34;5.40;99.90
5055;DHT22;13829;48.990;8.346;2022-12-07T07:06:01;5.40;99.90
5055;DHT22;13829;48.990;8.346;2022-12-07T07:08:29;5.40;99.90
5055;DHT22;13829;48.990;8.346;2022-12-07T07:10:56;5.40;99.90
5055;DHT22;13829;48.990;8.346;2022-12-07T07:13:23;5.50;99.90
5055;DHT22;13829;48.990;8.346;2022-12-07T07:15:50;5.50;99.90
5055;DHT22;13829;48.990;8.346;2022-12-07T07:18:17;5.60;99.90
5055;DHT22;13829;48.990;8.346;2022-12-07T07:20:44;5.50;99.90
5055;DHT22;13829;48.990;8.346;2022-12-07T07:23:11;5.50;99.90
5055;DHT22;13829;48.990;8.346;2022-12-07T07:25:40;5.50;99.90
5055;DHT22;13829;48.990;8.346;2022-12-07T07:28:07;5.50;99.90
5055;DHT22;13829;48.990;8.346;2022-12-07T07:30:34;5.50;99.90
5055;DHT22;13829;48.990;8.346;2022-12-07T07:33:02;5.50;99.90
5055;DHT22;13829;48.990;8.346;2022-12-07T07:35:31;5.50;99.90
5055;DHT22;13829;48.990;8.346;2022-12-07T07:37:59;5.50;99.90
5055;DHT22;13829;48.990;8.346;2022-12-07T07:40:26;5.50;99.90
5055;DHT22;13829;48.990;8.346;2022-12-07T07:42:55;5.60;99.90
5055;DHT22;13829;48.990;8.346;2022-12-07T07:45:25;5.60;99.90
5055;DHT22;13829;48.990;8.346;2022-12-07T07:47:53;5.70;99.90
5055;DHT22;13829;48.990;8.346;2022-12-07T07:50:20;5.70;99.90
5055;DHT22;13829;48.990;8.346;2022-12-07T07:52:47;5.80;99.90
5055;DHT22;13829;48.990;8.346;2022-12-07T07:55:15;5.80;99.90
5055;DHT22;13829;48.990;8.346;2022-12-07T07:57:42;5.90;99.90
5055;DHT22;13829;48.990;8.346;2022-12-07T08:00:13;5.80;99.90
5055;DHT22;13829;48.990;8.346;2022-12-07T08:02:41;5.80;99.90
5055;DHT22;13829;48.990;8.346;2022-12-07T08:05:09;5.80;99.90
5055;DHT22;13829;48.990;8.346;2022-12-07T08:07:37;5.80;99.90
5055;DHT22;13829;48.990;8.346;2022-12-07T08:10:05;5.90;99.90
5055;DHT22;13829;48.990;8.346;2022-12-07T08:12:36;5.90;99.90
5055;DHT22;13829;48.990;8.346;2022-12-07T08:15:26;5.90;99.90
5055;DHT22;13829;48.990;8.346;2022-12-07T08:17:55;5.90;99.90
5055;DHT22;13829;48.990;8.346;2022-12-07T08:20:22;6.10;99.90
5055;DHT22;13829;48.990;8.346;2022-12-07T08:22:49;6.00;99.90
5055;DHT22;13829;48.990;8.346;2022-12-07T08:25:16;6.00;99.90
5055;DHT22;13829;48.990;8.346;2022-12-07T08:27:44;5.90;99.90
5055;DHT22;13829;48.990;8.346;2022-12-07T08:30:11;5.90;99.90
5055;DHT22;13829;48.990;8.346;2022-12-07T08:32:40;5.90;99.90
5055;DHT22;13829;48.990;8.346;2022-12-07T08:37:42;6.00;99.90
5055;DHT22;13829;48.990;8.346;2022-12-07T08:40:11;5.90;99.90
5055;DHT22;13829;48.990;8.346;2022-12-07T08:42:41;5.80;99.90
5055;DHT22;13829;48.990;8.346;2022-12-07T08:45:11;5.90;99.90
5055;DHT22;13829;48.990;8.346;2022-12-07T08:47:43;5.90;99.90
5055;DHT22;13829;48.990;8.346;2022-12-07T08:50:12;5.90;99.90
5055;DHT22;13829;48.990;8.346;2022-12-07T08:52:40;5.90;99.90
5055;DHT22;13829;48.990;8.346;2022-12-07T08:55:10;6.00;99.90
5055;DHT22;13829;48.990;8.346;2022-12-07T08:57:39;6.00;99.90
5055;DHT22;13829;48.990;8.346;2022-12-07T09:00:09;5.90;99.90
5055;DHT22;13829;48.990;8.346;2022-12-07T09:02:36;5.90;99.90
5055;DHT22;13829;48.990;8.346;2022-12-07T09:05:05;6.00;99.90
5055;DHT22;13829;48.990;8.346;2022-12-07T09:07:34;6.10;99.90
5055;DHT22;13829;48.990;8.346;2022-12-07T09:10:01;6.10;99.90
5055;DHT22;13829;48.990;8.346;2022-12-07T09:12:28;6.10;99.90
5055;DHT22;13829;48.990;8.346;2022-12-07T09:14:55;6.20;99.90
5055;DHT22;13829;48.990;8.346;2022-12-07T09:17:22;6.20;99.90
5055;DHT22;13829;48.990;8.346;2022-12-07T09:19:49;6.30;99.90
5055;DHT22;13829;48.990;8.346;2022-12-07T09:22:18;6.30;99.90
5055;DHT22;13829;48.990;8.346;2022-12-07T09:24:45;6.30;99.90
5055;DHT22;13829;48.990;8.346;2022-12-07T09:27:12;6.40;99.90
5055;DHT22;13829;48.990;8.346;2022-12-07T09:29:39;6.40;99.90
5055;DHT22;13829;48.990;8.346;2022-12-07T09:32:06;6.50;99.90
5055;DHT22;13829;48.990;8.346;2022-12-07T09:34:33;6.50;99.90
5055;DHT22;13829;48.990;8.346;2022-12-07T09:37:01;6.50;99.90
5055;DHT22;13829;48.990;8.346;2022-12-07T09:39:30;6.40;99.90
5055;DHT22;13829;48.990;8.346;2022-12-07T09:41:58;6.40;99.90
5055;DHT22;13829;48.990;8.346;2022-12-07T09:44:29;6.40;99.90
5055;DHT22;13829;48.990;8.346;2022-12-07T09:46:56;6.50;99.90
5055;DHT22;13829;48.990;8.346;2022-12-07T09:49:25;6.50;99.90
5055;DHT22;13829;48.990;8.346;2022-12-07T09:52:03;6.50;99.90
5055;DHT22;13829;48.990;8.346;2022-12-07T09:54:48;6.60;99.90
5055;DHT22;13829;48.990;8.346;2022-12-07T09:57:17;6.70;99.90
5055;DHT22;13829;48.990;8.346;2022-12-07T09:59:47;6.70;99.90
5055;DHT22;13829;48.990;8.346;2022-12-07T10:02:35;6.70;99.90
5055;DHT22;13829;48.990;8.346;2022-12-07T10:05:06;6.70;99.90
5055;DHT22;13829;48.990;8.346;2022-12-07T10:07:38;6.90;99.90
5055;DHT22;13829;48.990;8.346;2022-12-07T10:10:15;6.90;99.90
5055;DHT22;13829;48.990;8.346;2022-12-07T10:12:57;6.90;99.90
5055;DHT22;13829;48.990;8.346;2022-12-07T10:15:43;6.90;99.90
5055;DHT22;13829;48.990;8.346;2022-12-07T10:18:27;6.90;99.90
5055;DHT22;13829;48.990;8.346;2022-12-07T10:21:08;7.00;99.90
5055;DHT22;13829;48.990;8.346;2022-12-07T10:23:40;6.90;99.90
5055;DHT22;13829;48.990;8.346;2022-12-07T10:26:29;6.90;99.90
5055;DHT22;13829;48.990;8.346;2022-12-07T10:29:00;6.90;99.90
5055;DHT22;13829;48.990;8.346;2022-12-07T10:31:31;6.80;99.90
5055;DHT22;13829;48.990;8.346;2022-12-07T10:33:59;6.80;99.90
5055;DHT22;13829;48.990;8.346;2022-12-07T10:36:34;6.80;99.90
5055;DHT22;13829;48.990;8.346;2022-12-07T10:39:10;6.70;99.90
5055;DHT22;13829;48.990;8.346;2022-12-07T10:41:53;6.80;99.90
5055;DHT22;13829;48.990;8.346;2022-12-07T10:44:23;6.90;99.90
5055;DHT22;13829;48.990;8.346;2022-12-07T10:47:07;6.90;99.90
5055;DHT22;13829;48.990;8.346;2022-12-07T10:50:02;6.90;99.90
5055;DHT22;13829;48.990;8.346;2022-12-07T10:53:03;6.80;99.90
5055;DHT22;13829;48.990;8.346;2022-12-07T10:55:58;6.80;99.90
5055;DHT22;13829;48.990;8.346;2022-12-07T10:58:51;6.80;99.90
5055;DHT22;13829;48.990;8.346;2022-12-07T11:01:30;6.80;99.90
5055;DHT22;13829;48.990;8.346;2022-12-07T11:04:18;6.80;99.90
5055;DHT22;13829;48.990;8.346;2022-12-07T11:07:00;6.80;99.90
5055;DHT22;13829;48.990;8.346;2022-12-07T11:09:50;6.80;99.90
5055;DHT22;13829;48.990;8.346;2022-12-07T11:12:39;6.70;99.90
5055;DHT22;13829;48.990;8.346;2022-12-07T11:15:18;6.70;99.90
5055;DHT22;13829;48.990;8.346;2022-12-07T11:17:56;6.70;99.90
5055;DHT22;13829;48.990;8.346;2022-12-07T11:20:39;6.90;99.90
5055;DHT22;13829;48.990;8.346;2022-12-07T11:23:19;6.90;99.90
5055;DHT22;13829;48.990;8.346;2022-12-07T11:25:56;6.90;99.90
5055;DHT22;13829;48.990;8.346;2022-12-07T11:28:48;7.00;99.90
5055;DHT22;13829;48.990;8.346;2022-12-07T11:31:36;7.10;99.90
5055;DHT22;13829;48.990;8.346;2022-12-07T11:34:22;7.20;99.90
5055;DHT22;13829;48.990;8.346;2022-12-07T11:36:59;7.30;99.90
5055;DHT22;13829;48.990;8.346;2022-12-07T11:39:33;7.30;99.90
5055;DHT22;13829;48.990;8.346;2022-12-07T11:42:07;7.30;99.90
5055;DHT22;13829;48.990;8.346;2022-12-07T11:44:46;7.30;99.90
5055;DHT22;13829;48.990;8.346;2022-12-07T11:47:23;7.30;99.90
5055;DHT22;13829;48.990;8.346;2022-12-07T11:50:03;7.30;99.90
5055;DHT22;13829;48.990;8.346;2022-12-07T11:52:44;7.20;99.90
5055;DHT22;13829;48.990;8.346;2022-12-07T11:55:23;7.20;99.90
5055;DHT22;13829;48.990;8.346;2022-12-07T11:58:01;7.10;99.90
5055;DHT22;13829;48.990;8.346;2022-12-07T12:00:35;7.20;99.90
5055;DHT22;13829;48.990;8.346;2022-12-07T12:03:10;7.20;99.90
5055;DHT22;13829;48.990;8.346;2022-12-07T12:05:42;7.30;99.90
5055;DHT22;13829;48.990;8.346;2022-12-07T12:08:14;7.30;99.90
5055;DHT22;13829;48.990;8.346;2022-12-07T12:10:54;7.40;99.90
5055;DHT22;13829;48.990;8.346;2022-12-07T12:13:43;7.30;99.90
5055;DHT22;13829;48.990;8.346;2022-12-07T12:20:00;7.30;99.90
5055;DHT22;13829;48.990;8.346;2022-12-07T12:22:35;7.30;99.90
5055;DHT22;13829;48.990;8.346;2022-12-07T12:25:11;7.50;99.90
5055;DHT22;13829;48.990;8.346;2022-12-07T12:27:47;7.40;99.90
5055;DHT22;13829;48.990;8.346;2022-12-07T12:30:35;7.40;99.90
5055;DHT22;13829;48.990;8.346;2022-12-07T12:33:06;7.50;99.90
5055;DHT22;13829;48.990;8.346;2022-12-07T12:35:42;7.50;99.90
5055;DHT22;13829;48.990;8.346;2022-12-07T12:38:29;7.60;99.90
5055;DHT22;13829;48.990;8.346;2022-12-07T12:41:00;7.60;99.90
5055;DHT22;13829;48.990;8.346;2022-12-07T12:43:48;7.60;99.90
5055;DHT22;13829;48.990;8.346;2022-12-07T12:46:37;7.50;99.90
5055;DHT22;13829;48.990;8.346;2022-12-07T12:49:42;7.50;99.90
5055;DHT22;13829;48.990;8.346;2022-12-07T12:55:27;7.30;99.90
5055;DHT22;13829;48.990;8.346;2022-12-07T13:01:46;7.30;99.90
5055;DHT22;13829;48.990;8.346;2022-12-07T13:04:21;7.20;99.90
5055;DHT22;13829;48.990;8.346;2022-12-07T13:06:52;7.20;99.90
5055;DHT22;13829;48.990;8.346;2022-12-07T13:09:23;7.10;99.90
5055;DHT22;13829;48.990;8.346;2022-12-07T13:12:01;7.20;99.90
5055;DHT22;13829;48.990;8.346;2022-12-07T13:14:58;7.00;99.90
5055;DHT22;13829;48.990;8.346;2022-12-07T13:18:00;7.10;99.90
5055;DHT22;13829;48.990;8.346;2022-12-07T13:20:50;7.00;99.90
5055;DHT22;13829;48.990;8.346;2022-12-07T13:23:31;7.00;99.90
5055;DHT22;13829;48.990;8.346;2022-12-07T13:26:18;6.90;99.90
5055;DHT22;13829;48.990;8.346;2022-12-07T13:28:48;7.20;99.90
5055;DHT22;13829;48.990;8.346;2022-12-07T13:31:23;6.90;99.90
5055;DHT22;13829;48.990;8.346;2022-12-07T13:33:58;7.00;99.90
5055;DHT22;13829;48.990;8.346;2022-12-07T13:36:27;7.00;99.90
5055;DHT22;13829;48.990;8.346;2022-12-07T13:39:11;6.90;99.90
5055;DHT22;13829;48.990;8.346;2022-12-07T13:41:50;6.90;99.90
5055;DHT22;13829;48.990;8.346;2022-12-07T13:44:19;6.90;99.90
5055;DHT22;13829;48.990;8.346;2022-12-07T13:46:52;7.00;99.90
5055;DHT22;13829;48.990;8.346;2022-12-07T13:49:26;6.90;99.90
5055;DHT22;13829;48.990;8.346;2022-12-07T13:51:55;7.00;99.90
5055;DHT22;13829;48.990;8.346;2022-12-07T13:54:44;6.90;99.90
5055;DHT22;13829;48.990;8.346;2022-12-07T13:57:13;6.80;99.90
5055;DHT22;13829;48.990;8.346;2022-12-07T13:59:41;6.80;99.90
5055;DHT22;13829;48.990;8.346;2022-12-07T14:02:18;6.80;99.90
5055;DHT22;13829;48.990;8.346;2022-12-07T14:04:49;6.90;99.90
5055;DHT22;13829;48.990;8.346;2022-12-07T14:07:23;6.90;99.90
5055;DHT22;13829;48.990;8.346;2022-12-07T14:09:55;7.10;99.90
5055;DHT22;13829;48.990;8.346;2022-12-07T14:12:28;7.00;99.90
5055;DHT22;13829;48.990;8.346;2022-12-07T14:14:58;7.10;99.90
5055;DHT22;13829;48.990;8.346;2022-12-07T14:17:27;7.10;99.90
5055;DHT22;13829;48.990;8.346;2022-12-07T14:19:56;7.20;99.90
5055;DHT22;13829;48.990;8.346;2022-12-07T14:22:28;7.00;99.90
5055;DHT22;13829;48.990;8.346;2022-12-07T14:25:09;7.10;99.90
5055;DHT22;13829;48.990;8.346;2022-12-07T14:27:51;7.10;99.90
5055;DHT22;13829;48.990;8.346;2022-12-07T14:30:24;7.10;99.90
5055;DHT22;13829;48.990;8.346;2022-12-07T14:32:55;7.10;99.90
5055;DHT22;13829;48.990;8.346;2022-12-07T14:35:26;7.10;99.90
5055;DHT22;13829;48.990;8.346;2022-12-07T14:37:53;7.00;99.90
5055;DHT22;13829;48.990;8.346;2022-12-07T14:40:22;7.10;99.90
5055;DHT22;13829;48.990;8.346;2022-12-07T14:42:54;7.10;99.90
5055;DHT22;13829;48.990;8.346;2022-12-07T14:45:24;7.10;99.90
5055;DHT22;13829;48.990;8.346;2022-12-07T14:47:51;7.00;99.90
5055;DHT22;13829;48.990;8.346;2022-12-07T14:50:19;7.00;99.90
5055;DHT22;13829;48.990;8.346;2022-12-07T14:52:50;7.00;99.90
5055;DHT22;13829;48.990;8.346;2022-12-07T14:55:24;7.00;99.90
5055;DHT22;13829;48.990;8.346;2022-12-07T14:57:54;6.90;99.90
5055;DHT22;13829;48.990;8.346;2022-12-07T15:00:23;6.90;99.90
5055;DHT22;13829;48.990;8.346;2022-12-07T15:02:52;6.80;99.90
5055;DHT22;13829;48.990;8.346;2022-12-07T15:05:19;6.80;99.90
5055;DHT22;13829;48.990;8.346;2022-12-07T15:07:47;6.70;99.90
5055;DHT22;13829;48.990;8.346;2022-12-07T15:10:18;6.80;99.90
5055;DHT22;13829;48.990;8.346;2022-12-07T15:12:46;6.70;99.90
5055;DHT22;13829;48.990;8.346;2022-12-07T15:15:14;6.80;99.90
5055;DHT22;13829;48.990;8.346;2022-12-07T15:17:42;6.70;99.90
5055;DHT22;13829;48.990;8.346;2022-12-07T15:20:11;6.80;99.90
5055;DHT22;13829;48.990;8.346;2022-12-07T15:22:39;6.70;99.90
5055;DHT22;13829;48.990;8.346;2022-12-07T15:25:08;6.70;99.90
5055;DHT22;13829;48.990;8.346;2022-12-07T15:27:35;6.60;99.90
5055;DHT22;13829;48.990;8.346;2022-12-07T15:30:02;6.50;99.90
5055;DHT22;13829;48.990;8.346;2022-12-07T15:32:31;6.50;99.90
5055;DHT22;13829;48.990;8.346;2022-12-07T15:34:58;6.40;99.90
5055;DHT22;13829;48.990;8.346;2022-12-07T15:37:25;6.40;99.90
5055;DHT22;13829;48.990;8.346;2022-12-07T15:39:52;6.40;99.90
5055;DHT22;13829;48.990;8.346;2022-12-07T15:42:19;6.40;99.90
5055;DHT22;13829;48.990;8.346;2022-12-07T15:44:46;6.40;99.90
5055;DHT22;13829;48.990;8.346;2022-12-07T15:47:31;6.40;99.90
5055;DHT22;13829;48.990;8.346;2022-12-07T15:50:00;6.40;99.90
5055;DHT22;13829;48.990;8.346;2022-12-07T15:52:27;6.30;99.90
5055;DHT22;13829;48.990;8.346;2022-12-07T15:54:54;6.50;99.90
5055;DHT22;13829;48.990;8.346;2022-12-07T15:57:21;6.40;99.90
5055;DHT22;13829;48.990;8.346;2022-12-07T15:59:48;6.40;99.90
5055;DHT22;13829;48.990;8.346;2022-12-07T16:02:15;6.40;99.90
5055;DHT22;13829;48.990;8.346;2022-12-07T16:04:43;6.40;99.90
5055;DHT22;13829;48.990;8.346;2022-12-07T16:07:10;6.40;99.90
5055;DHT22;13829;48.990;8.346;2022-12-07T16:09:41;6.30;99.90
5055;DHT22;13829;48.990;8.346;2022-12-07T16:12:08;6.30;99.90
5055;DHT22;13829;48.990;8.346;2022-12-07T16:14:35;6.40;99.90
5055;DHT22;13829;48.990;8.346;2022-12-07T16:17:03;6.30;99.90
5055;DHT22;13829;48.990;8.346;2022-12-07T16:19:31;6.30;99.90
5055;DHT22;13829;48.990;8.346;2022-12-07T16:22:00;6.20;99.90
5055;DHT22;13829;48.990;8.346;2022-12-07T16:24:27;6.20;99.90
5055;DHT22;13829;48.990;8.346;2022-12-07T16:26:54;6.10;99.90
5055;DHT22;13829;48.990;8.346;2022-12-07T16:29:22;6.00;99.90
5055;DHT22;13829;48.990;8.346;2022-12-07T16:31:50;6.00;99.90
5055;DHT22;13829;48.990;8.346;2022-12-07T16:34:18;5.90;99.90
5055;DHT22;13829;48.990;8.346;2022-12-07T16:36:45;5.90;99.90
5055;DHT22;13829;48.990;8.346;2022-12-07T16:39:13;5.90;99.90
5055;DHT22;13829;48.990;8.346;2022-12-07T16:41:41;5.90;99.90
5055;DHT22;13829;48.990;8.346;2022-12-07T16:44:10;5.90;99.90
5055;DHT22;13829;48.990;8.346;2022-12-07T16:46:39;5.90;99.90